sensor_id;sensor_type;location;lat;lon;timestamp;temperature;humidity
1005;DHT22;491;53.480;10.174;2022-11-25T00:01:14;4.10;99.90
1005;DHT22;491;53.480;10.174;2022-11-25T00:03:41;4.10;99.90
1005;DHT22;491;53.480;10.174;2022-11-25T00:06:18;4.20;99.90
1005;DHT22;491;53.480;10.174;2022-11-25T00:08:45;4.20;99.90
1005;DHT22;491;53.480;10.174;2022-11-25T00:11:12;4.10;99.90
1005;DHT22;491;53.480;10.174;2022-11-25T00:13:38;4.20;99.90
1005;DHT22;491;53.480;10.174;2022-11-25T00:16:09;4.10;99.90
1005;DHT22;491;53.480;10.174;2022-11-25T00:18:35;4.10;99.90
1005;DHT22;491;53.480;10.174;2022-11-25T00:21:09;4.00;99.90
1005;DHT22;491;53.480;10.174;2022-11-25T00:23:35;4.10;99.90
1005;DHT22;491;53.480;10.174;2022-11-25T00:26:14;4.10;99.90
1005;DHT22;491;53.480;10.174;2022-11-25T00:28:42;4.10;99.90
1005;DHT22;491;53.480;10.174;2022-11-25T00:31:15;4.10;99.90
1005;DHT22;491;53.480;10.174;2022-11-25T00:33:43;4.00;99.90
1005;DHT22;491;53.480;10.174;2022-11-25T00:36:20;4.00;99.90
1005;DHT22;491;53.480;10.174;2022-11-25T00:38:50;4.10;99.90
1005;DHT22;491;53.480;10.174;2022-11-25T00:41:16;4.00;99.90
1005;DHT22;491;53.480;10.174;2022-11-25T00:44:00;4.00;99.90
1005;DHT22;491;53.480;10.174;2022-11-25T00:46:44;4.00;99.90
1005;DHT22;491;53.480;10.174;2022-11-25T00:49:10;4.00;99.90
1005;DHT22;491;53.480;10.174;2022-11-25T00:51:38;3.90;99.90
1005;DHT22;491;53.480;10.174;2022-11-25T00:54:04;3.90;99.90
1005;DHT22;491;53.480;10.174;2022-11-25T00:56:30;3.90;99.90
1005;DHT22;491;53.480;10.174;2022-11-25T00:58:55;3.90;99.90
1005;DHT22;491;53.480;10.174;2022-11-25T01:01:23;3.80;99.90
1005;DHT22;491;53.480;10.174;2022-11-25T01:03:50;3.80;99.90
1005;DHT22;491;53.480;10.174;2022-11-25T01:06:16;3.80;99.90
1005;DHT22;491;53.480;10.174;2022-11-25T01:08:42;3.70;99.90
1005;DHT22;491;53.480;10.174;2022-11-25T01:11:10;3.70;99.90
1005;DHT22;491;53.480;10.174;2022-11-25T01:13:36;3.80;99.90
1005;DHT22;491;53.480;10.174;2022-11-25T01:16:24;3.80;99.90
1005;DHT22;491;53.480;10.174;2022-11-25T01:18:48;3.80;99.90
1005;DHT22;491;53.480;10.174;2022-11-25T01:21:23;3.80;99.90
1005;DHT22;491;53.480;10.174;2022-11-25T01:23:49;3.90;99.90
1005;DHT22;491;53.480;10.174;2022-11-25T01:26:17;3.90;99.90
1005;DHT22;491;53.480;10.174;2022-11-25T01:28:44;3.90;99.90
1005;DHT22;491;53.480;10.174;2022-11-25T01:31:15;3.90;99.90
1005;DHT22;491;53.480;10.174;2022-11-25T01:33:42;3.90;99.90
1005;DHT22;491;53.480;10.174;2022-11-25T01:36:11;3.90;99.90
1005;DHT22;491;53.480;10.174;2022-11-25T01:38:37;3.80;99.90
1005;DHT22;491;53.480;10.174;2022-11-25T01:41:04;3.80;99.90
1005;DHT22;491;53.480;10.174;2022-11-25T01:43:29;3.80;99.90
1005;DHT22;491;53.480;10.174;2022-11-25T01:48:56;3.70;99.90
1005;DHT22;491;53.480;10.174;2022-11-25T01:51:30;3.70;99.90
1005;DHT22;491;53.480;10.174;2022-11-25T01:54:01;3.70;99.90
1005;DHT22;491;53.480;10.174;2022-11-25T01:56:33;3.80;99.90
1005;DHT22;491;53.480;10.174;2022-11-25T01:59:00;3.80;99.90
1005;DHT22;491;53.480;10.174;2022-11-25T02:01:26;3.90;99.90
1005;DHT22;491;53.480;10.174;2022-11-25T02:03:53;3.90;99.90
1005;DHT22;491;53.480;10.174;2022-11-25T02:06:31;3.90;99.90
1005;DHT22;491;53.480;10.174;2022-11-25T02:09:03;3.90;99.90
1005;DHT22;491;53.480;10.174;2022-11-25T02:11:30;3.90;99.90
1005;DHT22;491;53.480;10.174;2022-11-25T02:13:59;3.90;99.90
1005;DHT22;491;53.480;10.174;2022-11-25T02:16:26;4.00;99.90
1005;DHT22;491;53.480;10.174;2022-11-25T02:18:51;4.00;99.90
1005;DHT22;491;53.480;10.174;2022-11-25T02:21:23;4.00;99.90
1005;DHT22;491;53.480;10.174;2022-11-25T02:24:14;4.00;99.90
1005;DHT22;491;53.480;10.174;2022-11-25T02:26:42;4.10;99.90
1005;DHT22;491;53.480;10.174;2022-11-25T02:29:08;4.00;99.90
1005;DHT22;491;53.480;10.174;2022-11-25T02:31:34;4.00;99.90
1005;DHT22;491;53.480;10.174;2022-11-25T02:33:59;3.90;99.90
1005;DHT22;491;53.480;10.174;2022-11-25T02:36:25;3.90;99.90
1005;DHT22;491;53.480;10.174;2022-11-25T02:38:54;3.90;99.90
1005;DHT22;491;53.480;10.174;2022-11-25T02:41:30;3.90;99.90
1005;DHT22;491;53.480;10.174;2022-11-25T02:43:56;3.90;99.90
1005;DHT22;491;53.480;10.174;2022-11-25T02:46:23;3.90;99.90
1005;DHT22;491;53.480;10.174;2022-11-25T02:48:51;3.90;99.90
1005;DHT22;491;53.480;10.174;2022-11-25T02:51:19;3.80;99.90
1005;DHT22;491;53.480;10.174;2022-11-25T02:53:45;3.80;99.90
1005;DHT22;491;53.480;10.174;2022-11-25T02:56:12;3.70;99.90
1005;DHT22;491;53.480;10.174;2022-11-25T02:58:39;3.70;99.90
1005;DHT22;491;53.480;10.174;2022-11-25T03:01:05;3.70;99.90
1005;DHT22;491;53.480;10.174;2022-11-25T03:03:30;3.60;99.90
1005;DHT22;491;53.480;10.174;2022-11-25T03:05:56;3.50;99.90
1005;DHT22;491;53.480;10.174;2022-11-25T03:08:21;3.50;99.90
1005;DHT22;491;53.480;10.174;2022-11-25T03:10:47;3.40;99.90
1005;DHT22;491;53.480;10.174;2022-11-25T03:13:12;3.40;99.90
1005;DHT22;491;53.480;10.174;2022-11-25T03:15:41;3.40;99.90
1005;DHT22;491;53.480;10.174;2022-11-25T03:18:06;3.30;99.90
1005;DHT22;491;53.480;10.174;2022-11-25T03:20:41;3.30;99.90
1005;DHT22;491;53.480;10.174;2022-11-25T03:23:07;3.30;99.90
1005;DHT22;491;53.480;10.174;2022-11-25T03:25:34;3.30;99.90
1005;DHT22;491;53.480;10.174;2022-11-25T03:28:00;3.20;99.90
1005;DHT22;491;53.480;10.174;2022-11-25T03:30:27;3.20;99.90
1005;DHT22;491;53.480;10.174;2022-11-25T03:32:53;3.10;99.90
1005;DHT22;491;53.480;10.174;2022-11-25T03:35:19;3.20;99.90
1005;DHT22;491;53.480;10.174;2022-11-25T03:37:45;3.10;99.90
1005;DHT22;491;53.480;10.174;2022-11-25T03:40:12;3.20;99.90
1005;DHT22;491;53.480;10.174;2022-11-25T03:42:37;3.20;99.90
1005;DHT22;491;53.480;10.174;2022-11-25T03:45:04;3.20;99.90
1005;DHT22;491;53.480;10.174;2022-11-25T03:47:30;3.30;99.90
1005;DHT22;491;53.480;10.174;2022-11-25T03:49:55;3.30;99.90
1005;DHT22;491;53.480;10.174;2022-11-25T03:52:21;3.20;99.90
1005;DHT22;491;53.480;10.174;2022-11-25T03:54:46;3.20;99.90
1005;DHT22;491;53.480;10.174;2022-11-25T03:57:12;3.10;99.90
1005;DHT22;491;53.480;10.174;2022-11-25T03:59:37;3.20;99.90
1005;DHT22;491;53.480;10.174;2022-11-25T04:02:03;3.20;99.90
1005;DHT22;491;53.480;10.174;2022-11-25T04:04:29;3.20;99.90
1005;DHT22;491;53.480;10.174;2022-11-25T04:06:54;3.20;99.90
1005;DHT22;491;53.480;10.174;2022-11-25T04:09:20;3.30;99.90
1005;DHT22;491;53.480;10.174;2022-11-25T04:11:46;3.30;99.90
1005;DHT22;491;53.480;10.174;2022-11-25T04:14:30;3.30;99.90
1005;DHT22;491;53.480;10.174;2022-11-25T04:16:56;3.30;99.90
1005;DHT22;491;53.480;10.174;2022-11-25T04:19:21;3.30;99.90
1005;DHT22;491;53.480;10.174;2022-11-25T04:21:47;3.30;99.90
1005;DHT22;491;53.480;10.174;2022-11-25T04:24:13;3.30;99.90
1005;DHT22;491;53.480;10.174;2022-11-25T04:26:38;3.30;99.90
1005;DHT22;491;53.480;10.174;2022-11-25T04:29:04;3.30;99.90
1005;DHT22;491;53.480;10.174;2022-11-25T04:31:30;3.30;99.90
1005;DHT22;491;53.480;10.174;2022-11-25T04:33:55;3.30;99.90
1005;DHT22;491;53.480;10.174;2022-11-25T04:36:21;3.30;99.90
1005;DHT22;491;53.480;10.174;2022-11-25T04:38:46;3.30;99.90
1005;DHT22;491;53.480;10.174;2022-11-25T04:41:12;3.30;99.90
1005;DHT22;491;53.480;10.174;2022-11-25T04:43:37;3.30;99.90
1005;DHT22;491;53.480;10.174;2022-11-25T04:46:03;3.40;99.90
1005;DHT22;491;53.480;10.174;2022-11-25T04:48:29;3.40;99.90
1005;DHT22;491;53.480;10.174;2022-11-25T04:50:55;3.40;99.90
1005;DHT22;491;53.480;10.174;2022-11-25T04:53:20;3.40;99.90
1005;DHT22;491;53.480;10.174;2022-11-25T04:55:46;3.40;99.90
1005;DHT22;491;53.480;10.174;2022-11-25T04:58:12;3.40;99.90
1005;DHT22;491;53.480;10.174;2022-11-25T05:00:37;3.30;99.90
1005;DHT22;491;53.480;10.174;2022-11-25T05:03:03;3.40;99.90
1005;DHT22;491;53.480;10.174;2022-11-25T05:05:29;3.40;99.90
1005;DHT22;491;53.480;10.174;2022-11-25T05:07:55;3.30;99.90
1005;DHT22;491;53.480;10.174;2022-11-25T05:10:21;3.30;99.90
1005;DHT22;491;53.480;10.174;2022-11-25T05:12:46;3.30;99.90
1005;DHT22;491;53.480;10.174;2022-11-25T05:15:12;3.20;99.90
1005;DHT22;491;53.480;10.174;2022-11-25T05:17:38;3.20;99.90
1005;DHT22;491;53.480;10.174;2022-11-25T05:20:04;3.30;99.90
1005;DHT22;491;53.480;10.174;2022-11-25T05:22:32;3.30;99.90
1005;DHT22;491;53.480;10.174;2022-11-25T05:24:58;3.30;99.90
1005;DHT22;491;53.480;10.174;2022-11-25T05:27:25;3.30;99.90
1005;DHT22;491;53.480;10.174;2022-11-25T05:29:50;3.20;99.90
1005;DHT22;491;53.480;10.174;2022-11-25T05:32:16;3.20;99.90
1005;DHT22;491;53.480;10.174;2022-11-25T05:34:42;3.20;99.90
1005;DHT22;491;53.480;10.174;2022-11-25T05:37:12;3.20;99.90
1005;DHT22;491;53.480;10.174;2022-11-25T05:39:38;3.30;99.90
1005;DHT22;491;53.480;10.174;2022-11-25T05:42:03;3.20;99.90
1005;DHT22;491;53.480;10.174;2022-11-25T05:44:32;3.30;99.90
1005;DHT22;491;53.480;10.174;2022-11-25T05:46:57;3.30;99.90
1005;DHT22;491;53.480;10.174;2022-11-25T05:49:23;3.30;99.90
1005;DHT22;491;53.480;10.174;2022-11-25T05:51:48;3.30;99.90
1005;DHT22;491;53.480;10.174;2022-11-25T05:54:14;3.30;99.90
1005;DHT22;491;53.480;10.174;2022-11-25T05:56:39;3.40;99.90
1005;DHT22;491;53.480;10.174;2022-11-25T05:59:05;3.50;99.90
1005;DHT22;491;53.480;10.174;2022-11-25T06:01:31;3.40;99.90
1005;DHT22;491;53.480;10.174;2022-11-25T06:04:02;3.40;99.90
1005;DHT22;491;53.480;10.174;2022-11-25T06:06:28;3.40;99.90
1005;DHT22;491;53.480;10.174;2022-11-25T06:08:54;3.50;99.90
1005;DHT22;491;53.480;10.174;2022-11-25T06:11:20;3.50;99.90
1005;DHT22;491;53.480;10.174;2022-11-25T06:13:46;3.50;99.90
1005;DHT22;491;53.480;10.174;2022-11-25T06:16:14;3.50;99.90
1005;DHT22;491;53.480;10.174;2022-11-25T06:18:40;3.50;99.90
1005;DHT22;491;53.480;10.174;2022-11-25T06:21:06;3.50;99.90
1005;DHT22;491;53.480;10.174;2022-11-25T06:23:33;3.50;99.90
1005;DHT22;491;53.480;10.174;2022-11-25T06:26:17;3.60;99.90
1005;DHT22;491;53.480;10.174;2022-11-25T06:28:43;3.70;99.90
1005;DHT22;491;53.480;10.174;2022-11-25T06:31:14;3.70;99.90
1005;DHT22;491;53.480;10.174;2022-11-25T06:33:46;3.70;99.90
1005;DHT22;491;53.480;10.174;2022-11-25T06:36:12;3.70;99.90
1005;DHT22;491;53.480;10.174;2022-11-25T06:38:46;3.70;99.90
1005;DHT22;491;53.480;10.174;2022-11-25T06:41:15;3.60;99.90
1005;DHT22;491;53.480;10.174;2022-11-25T06:43:41;3.60;99.90
1005;DHT22;491;53.480;10.174;2022-11-25T06:46:09;3.60;99.90
1005;DHT22;491;53.480;10.174;2022-11-25T06:48:35;3.60;99.90
1005;DHT22;491;53.480;10.174;2022-11-25T06:51:04;3.60;99.90
1005;DHT22;491;53.480;10.174;2022-11-25T06:53:31;3.60;99.90
1005;DHT22;491;53.480;10.174;2022-11-25T06:56:16;3.60;99.90
1005;DHT22;491;53.480;10.174;2022-11-25T06:58:43;3.60;99.90
1005;DHT22;491;53.480;10.174;2022-11-25T07:01:19;3.60;99.90
1005;DHT22;491;53.480;10.174;2022-11-25T07:03:46;3.70;99.90
1005;DHT22;491;53.480;10.174;2022-11-25T07:06:14;3.80;99.90
1005;DHT22;491;53.480;10.174;2022-11-25T07:08:40;3.90;99.90
1005;DHT22;491;53.480;10.174;2022-11-25T07:11:23;4.00;99.90
1005;DHT22;491;53.480;10.174;2022-11-25T07:13:54;4.00;99.90
1005;DHT22;491;53.480;10.174;2022-11-25T07:16:20;4.00;99.90
1005;DHT22;491;53.480;10.174;2022-11-25T07:18:46;4.10;99.90
1005;DHT22;491;53.480;10.174;2022-11-25T07:21:14;4.10;99.90
1005;DHT22;491;53.480;10.174;2022-11-25T07:23:41;4.10;99.90
1005;DHT22;491;53.480;10.174;2022-11-25T07:26:16;4.20;99.90
1005;DHT22;491;53.480;10.174;2022-11-25T07:28:42;4.10;99.90
1005;DHT22;491;53.480;10.174;2022-11-25T07:31:09;4.20;99.90
1005;DHT22;491;53.480;10.174;2022-11-25T07:33:36;4.20;99.90
1005;DHT22;491;53.480;10.174;2022-11-25T07:36:07;4.20;99.90
1005;DHT22;491;53.480;10.174;2022-11-25T07:38:34;4.20;99.90
1005;DHT22;491;53.480;10.174;2022-11-25T07:41:07;4.20;99.90
1005;DHT22;491;53.480;10.174;2022-11-25T07:43:33;4.20;99.90
1005;DHT22;491;53.480;10.174;2022-11-25T07:46:13;4.20;99.90
1005;DHT22;491;53.480;10.174;2022-11-25T07:48:40;4.20;99.90
1005;DHT22;491;53.480;10.174;2022-11-25T07:51:20;4.20;99.90
1005;DHT22;491;53.480;10.174;2022-11-25T07:53:47;4.20;99.90
1005;DHT22;491;53.480;10.174;2022-11-25T07:56:14;4.20;99.90
1005;DHT22;491;53.480;10.174;2022-11-25T07:58:40;4.30;99.90
1005;DHT22;491;53.480;10.174;2022-11-25T08:01:07;4.30;99.90
1005;DHT22;491;53.480;10.174;2022-11-25T08:03:35;4.30;99.90
1005;DHT22;491;53.480;10.174;2022-11-25T08:06:02;4.30;99.90
1005;DHT22;491;53.480;10.174;2022-11-25T08:08:29;4.30;99.90
1005;DHT22;491;53.480;10.174;2022-11-25T08:10:56;4.30;99.90
1005;DHT22;491;53.480;10.174;2022-11-25T08:13:22;4.40;99.90
1005;DHT22;491;53.480;10.174;2022-11-25T08:15:48;4.50;99.90
1005;DHT22;491;53.480;10.174;2022-11-25T08:18:13;4.40;99.90
1005;DHT22;491;53.480;10.174;2022-11-25T08:20:39;4.50;99.90
1005;DHT22;491;53.480;10.174;2022-11-25T08:23:05;4.50;99.90
1005;DHT22;491;53.480;10.174;2022-11-25T08:25:30;4.50;99.90
1005;DHT22;491;53.480;10.174;2022-11-25T08:27:59;4.50;99.90
1005;DHT22;491;53.480;10.174;2022-11-25T08:30:25;4.60;99.90
1005;DHT22;491;53.480;10.174;2022-11-25T08:32:52;4.60;99.90
1005;DHT22;491;53.480;10.174;2022-11-25T08:35:18;4.60;99.90
1005;DHT22;491;53.480;10.174;2022-11-25T08:37:44;4.60;99.90
1005;DHT22;491;53.480;10.174;2022-11-25T08:40:10;4.70;99.90
1005;DHT22;491;53.480;10.174;2022-11-25T08:42:42;4.70;99.90
1005;DHT22;491;53.480;10.174;2022-11-25T08:45:10;4.70;99.90
1005;DHT22;491;53.480;10.174;2022-11-25T08:47:37;4.70;99.90
1005;DHT22;491;53.480;10.174;2022-11-25T08:50:06;4.70;99.90
1005;DHT22;491;53.480;10.174;2022-11-25T08:52:32;4.70;99.90
1005;DHT22;491;53.480;10.174;2022-11-25T08:54:58;4.80;99.90
1005;DHT22;491;53.480;10.174;2022-11-25T08:57:24;4.70;99.90
1005;DHT22;491;53.480;10.174;2022-11-25T08:59:49;4.70;99.90
1005;DHT22;491;53.480;10.174;2022-11-25T09:02:16;4.80;99.90
1005;DHT22;491;53.480;10.174;2022-11-25T09:04:42;4.80;99.90
1005;DHT22;491;53.480;10.174;2022-11-25T09:07:08;4.80;99.90
1005;DHT22;491;53.480;10.174;2022-11-25T09:09:36;4.90;99.90
1005;DHT22;491;53.480;10.174;2022-11-25T09:12:02;4.90;99.90
1005;DHT22;491;53.480;10.174;2022-11-25T09:14:31;4.90;99.90
1005;DHT22;491;53.480;10.174;2022-11-25T09:16:56;5.00;99.90
1005;DHT22;491;53.480;10.174;2022-11-25T09:19:22;5.00;99.90
1005;DHT22;491;53.480;10.174;2022-11-25T09:21:48;5.00;99.90
1005;DHT22;491;53.480;10.174;2022-11-25T09:24:13;5.10;99.90
1005;DHT22;491;53.480;10.174;2022-11-25T09:26:39;5.10;99.90
1005;DHT22;491;53.480;10.174;2022-11-25T09:29:07;5.10;99.90
1005;DHT22;491;53.480;10.174;2022-11-25T09:31:33;5.20;99.90
1005;DHT22;491;53.480;10.174;2022-11-25T09:33:58;5.20;99.90
1005;DHT22;491;53.480;10.174;2022-11-25T09:36:24;5.20;99.90
1005;DHT22;491;53.480;10.174;2022-11-25T09:38:51;5.20;99.90
1005;DHT22;491;53.480;10.174;2022-11-25T09:41:27;5.10;99.90
1005;DHT22;491;53.480;10.174;2022-11-25T09:55:47;5.10;99.90
1005;DHT22;491;53.480;10.174;2022-11-25T09:58:31;5.10;99.90
1005;DHT22;491;53.480;10.174;2022-11-25T10:00:59;5.10;99.90
1005;DHT22;491;53.480;10.174;2022-11-25T10:03:48;5.10;99.90
1005;DHT22;491;53.480;10.174;2022-11-25T10:06:26;5.10;99.90
1005;DHT22;491;53.480;10.174;2022-11-25T10:08:58;5.10;99.90
1005;DHT22;491;53.480;10.174;2022-11-25T10:11:54;5.10;99.90
1005;DHT22;491;53.480;10.174;2022-11-25T10:17:26;5.10;99.90
1005;DHT22;491;53.480;10.174;2022-11-25T10:22:43;5.10;99.90
1005;DHT22;491;53.480;10.174;2022-11-25T10:25:22;5.20;99.90
1005;DHT22;491;53.480;10.174;2022-11-25T10:28:22;5.20;99.90
1005;DHT22;491;53.480;10.174;2022-11-25T10:33:55;5.30;99.90
1005;DHT22;491;53.480;10.174;2022-11-25T10:36:33;5.30;99.90
1005;DHT22;491;53.480;10.174;2022-11-25T10:39:08;5.30;99.90
1005;DHT22;491;53.480;10.174;2022-11-25T10:44:39;5.40;99.90
1005;DHT22;491;53.480;10.174;2022-11-25T10:55:33;5.40;99.90
1005;DHT22;491;53.480;10.174;2022-11-25T10:58:18;5.40;99.90
1005;DHT22;491;53.480;10.174;2022-11-25T11:00:44;5.50;99.90
1005;DHT22;491;53.480;10.174;2022-11-25T11:03:23;5.50;99.90
1005;DHT22;491;53.480;10.174;2022-11-25T11:05:51;5.50;99.90
1005;DHT22;491;53.480;10.174;2022-11-25T11:08:24;5.50;99.90
1005;DHT22;491;53.480;10.174;2022-11-25T11:11:20;5.50;99.90
1005;DHT22;491;53.480;10.174;2022-11-25T11:13:46;5.50;99.90
1005;DHT22;491;53.480;10.174;2022-11-25T11:18:53;5.60;99.90
1005;DHT22;491;53.480;10.174;2022-11-25T11:21:30;5.70;99.90
1005;DHT22;491;53.480;10.174;2022-11-25T11:23:56;5.70;99.90
1005;DHT22;491;53.480;10.174;2022-11-25T11:26:27;5.80;99.90
1005;DHT22;491;53.480;10.174;2022-11-25T11:29:03;5.80;99.90
1005;DHT22;491;53.480;10.174;2022-11-25T11:31:36;5.90;99.90
1005;DHT22;491;53.480;10.174;2022-11-25T11:34:10;5.90;99.90
1005;DHT22;491;53.480;10.174;2022-11-25T11:37:07;5.90;99.90
1005;DHT22;491;53.480;10.174;2022-11-25T11:40:18;6.00;99.90
1005;DHT22;491;53.480;10.174;2022-11-25T11:43:01;6.00;99.90
1005;DHT22;491;53.480;10.174;2022-11-25T11:50:47;6.00;99.90
1005;DHT22;491;53.480;10.174;2022-11-25T11:53:30;6.00;99.90
1005;DHT22;491;53.480;10.174;2022-11-25T11:56:24;6.10;99.90
1005;DHT22;491;53.480;10.174;2022-11-25T12:01:53;6.10;99.90
1005;DHT22;491;53.480;10.174;2022-11-25T12:04:44;6.10;99.90
1005;DHT22;491;53.480;10.174;2022-11-25T12:10:14;6.10;99.90
1005;DHT22;491;53.480;10.174;2022-11-25T12:12:47;6.10;99.90
1005;DHT22;491;53.480;10.174;2022-11-25T12:21:03;6.10;99.90
1005;DHT22;491;53.480;10.174;2022-11-25T12:23:50;6.10;99.90
1005;DHT22;491;53.480;10.174;2022-11-25T12:26:25;6.10;99.90
1005;DHT22;491;53.480;10.174;2022-11-25T12:29:03;6.20;99.90
1005;DHT22;491;53.480;10.174;2022-11-25T12:31:41;6.20;99.90
1005;DHT22;491;53.480;10.174;2022-11-25T12:34:26;6.30;99.90
1005;DHT22;491;53.480;10.174;2022-11-25T12:37:03;6.30;99.90
1005;DHT22;491;53.480;10.174;2022-11-25T12:39:39;6.30;99.90
1005;DHT22;491;53.480;10.174;2022-11-25T12:42:19;6.40;99.90
1005;DHT22;491;53.480;10.174;2022-11-25T12:45:01;6.40;99.90
1005;DHT22;491;53.480;10.174;2022-11-25T12:47:28;6.40;99.90
1005;DHT22;491;53.480;10.174;2022-11-25T12:49:54;6.50;99.90
1005;DHT22;491;53.480;10.174;2022-11-25T12:55:23;6.50;99.90
1005;DHT22;491;53.480;10.174;2022-11-25T12:57:59;6.50;99.90
1005;DHT22;491;53.480;10.174;2022-11-25T13:00:44;6.50;99.90
1005;DHT22;491;53.480;10.174;2022-11-25T13:06:44;6.60;99.90
1005;DHT22;491;53.480;10.174;2022-11-25T13:12:45;6.60;99.90
1005;DHT22;491;53.480;10.174;2022-11-25T13:15:28;6.70;99.90
1005;DHT22;491;53.480;10.174;2022-11-25T13:17:58;6.70;99.90
1005;DHT22;491;53.480;10.174;2022-11-25T13:23:07;6.70;99.90
1005;DHT22;491;53.480;10.174;2022-11-25T13:25:47;6.70;99.90
1005;DHT22;491;53.480;10.174;2022-11-25T13:28:33;6.70;99.90
1005;DHT22;491;53.480;10.174;2022-11-25T13:36:22;6.70;99.90
1005;DHT22;491;53.480;10.174;2022-11-25T13:41:21;6.70;99.90
1005;DHT22;491;53.480;10.174;2022-11-25T13:48:56;6.70;99.90
1005;DHT22;491;53.480;10.174;2022-11-25T13:51:26;6.80;99.90
1005;DHT22;491;53.480;10.174;2022-11-25T13:53:57;6.80;99.90
1005;DHT22;491;53.480;10.174;2022-11-25T13:56:29;6.90;99.90
1005;DHT22;491;53.480;10.174;2022-11-25T14:01:37;6.90;99.90
1005;DHT22;491;53.480;10.174;2022-11-25T14:04:05;6.90;99.90
1005;DHT22;491;53.480;10.174;2022-11-25T14:09:30;7.00;99.90
1005;DHT22;491;53.480;10.174;2022-11-25T14:12:29;7.00;99.90
1005;DHT22;491;53.480;10.174;2022-11-25T14:15:02;7.00;99.90
1005;DHT22;491;53.480;10.174;2022-11-25T14:18:03;7.00;99.90
1005;DHT22;491;53.480;10.174;2022-11-25T14:20:56;7.00;99.90
1005;DHT22;491;53.480;10.174;2022-11-25T14:23:48;7.00;99.90
1005;DHT22;491;53.480;10.174;2022-11-25T14:26:24;7.10;99.90
1005;DHT22;491;53.480;10.174;2022-11-25T14:29:16;7.10;99.90
1005;DHT22;491;53.480;10.174;2022-11-25T14:31:52;7.10;99.90
1005;DHT22;491;53.480;10.174;2022-11-25T14:34:24;7.20;99.90
1005;DHT22;491;53.480;10.174;2022-11-25T14:36:55;7.20;99.90
1005;DHT22;491;53.480;10.174;2022-11-25T14:39:30;7.20;99.90
1005;DHT22;491;53.480;10.174;2022-11-25T14:42:04;7.10;99.90
1005;DHT22;491;53.480;10.174;2022-11-25T14:47:10;7.10;99.90
1005;DHT22;491;53.480;10.174;2022-11-25T14:49:49;7.10;99.90
1005;DHT22;491;53.480;10.174;2022-11-25T14:52:25;7.10;99.90
1005;DHT22;491;53.480;10.174;2022-11-25T14:54:53;7.10;99.90
1005;DHT22;491;53.480;10.174;2022-11-25T14:57:24;7.10;99.90
1005;DHT22;491;53.480;10.174;2022-11-25T14:59:52;7.10;99.90
1005;DHT22;491;53.480;10.174;2022-11-25T15:02:32;7.10;99.90
1005;DHT22;491;53.480;10.174;2022-11-25T15:07:52;7.10;99.90
1005;DHT22;491;53.480;10.174;2022-11-25T15:10:40;7.10;99.90
1005;DHT22;491;53.480;10.174;2022-11-25T15:16:18;7.00;99.90
1005;DHT22;491;53.480;10.174;2022-11-25T15:18:55;7.00;99.90
1005;DHT22;491;53.480;10.174;2022-11-25T15:21:28;7.00;99.90
1005;DHT22;491;53.480;10.174;2022-11-25T15:23:54;7.00;99.90
1005;DHT22;491;53.480;10.174;2022-11-25T15:26:28;7.00;99.90
1005;DHT22;491;53.480;10.174;2022-11-25T15:29:01;7.00;99.90
1005;DHT22;491;53.480;10.174;2022-11-25T15:31:31;7.00;99.90
1005;DHT22;491;53.480;10.174;2022-11-25T15:34:01;7.00;99.90
1005;DHT22;491;53.480;10.174;2022-11-25T15:36:27;7.00;99.90
1005;DHT22;491;53.480;10.174;2022-11-25T15:38:53;7.00;99.90
1005;DHT22;491;53.480;10.174;2022-11-25T15:41:33;7.00;99.90
1005;DHT22;491;53.480;10.174;2022-11-25T15:44:02;7.00;99.90
1005;DHT22;491;53.480;10.174;2022-11-25T15:46:30;7.00;99.90
1005;DHT22;491;53.480;10.174;2022-11-25T15:49:02;7.00;99.90
1005;DHT22;491;53.480;10.174;2022-11-25T15:51:40;7.00;99.90
1005;DHT22;491;53.480;10.174;2022-11-25T15:54:18;7.00;99.90
1005;DHT22;491;53.480;10.174;2022-11-25T15:56:47;7.00;99.90
1005;DHT22;491;53.480;10.174;2022-11-25T15:59:49;7.00;99.90
1005;DHT22;491;53.480;10.174;2022-11-25T16:02:49;7.00;99.90
1005;DHT22;491;53.480;10.174;2022-11-25T16:05:24;7.10;99.90
1005;DHT22;491;53.480;10.174;2022-11-25T16:10:22;7.10;99.90
1005;DHT22;491;53.480;10.174;2022-11-25T16:13:14;7.00;99.90
1005;DHT22;491;53.480;10.174;2022-11-25T16:15:45;7.10;99.90
1005;DHT22;491;53.480;10.174;2022-11-25T16:18:12;7.10;99.90
1005;DHT22;491;53.480;10.174;2022-11-25T16:20:38;7.10;99.90
1005;DHT22;491;53.480;10.174;2022-11-25T16:23:08;7.10;99.90
1005;DHT22;491;53.480;10.174;2022-11-25T16:25:45;7.10;99.90
1005;DHT22;491;53.480;10.174;2022-11-25T16:28:18;7.10;99.90
1005;DHT22;491;53.480;10.174;2022-11-25T16:30:45;7.10;99.90
1005;DHT22;491;53.480;10.174;2022-11-25T16:33:10;7.10;99.90
1005;DHT22;491;53.480;10.174;2022-11-25T16:35:36;7.10;99.90
1005;DHT22;491;53.480;10.174;2022-11-25T16:38:02;7.10;99.90
1005;DHT22;491;53.480;10.174;2022-11-25T16:40:27;7.10;99.90
1005;DHT22;491;53.480;10.174;2022-11-25T16:42:53;7.10;99.90
1005;DHT22;491;53.480;10.174;2022-11-25T16:45:22;7.10;99.90
1005;DHT22;491;53.480;10.174;2022-11-25T16:47:52;7.10;99.90
1005;DHT22;491;53.480;10.174;2022-11-25T16:50:19;7.10;99.90
1005;DHT22;491;53.480;10.174;2022-11-25T16:52:45;7.10;99.90
1005;DHT22;491;53.480;10.174;2022-11-25T16:55:11;7.10;99.90
1005;DHT22;491;53.480;10.174;2022-11-25T16:57:38;7.10;99.90
1005;DHT22;491;53.480;10.174;2022-11-25T17:00:10;7.10;99.90
1005;DHT22;491;53.480;10.174;2022-11-25T17:02:36;7.10;99.90
1005;DHT22;491;53.480;10.174;2022-11-25T17:05:20;7.10;99.90
1005;DHT22;491;53.480;10.174;2022-11-25T17:07:46;7.10;99.90
1005;DHT22;491;53.480;10.174;2022-11-25T17:10:12;7.10;99.90
1005;DHT22;491;53.480;10.174;2022-11-25T17:12:40;7.10;99.90
1005;DHT22;491;53.480;10.174;2022-11-25T17:15:10;7.10;99.90
1005;DHT22;491;53.480;10.174;2022-11-25T17:17:40;7.10;99.90
1005;DHT22;491;53.480;10.174;2022-11-25T17:20:12;7.10;99.90
1005;DHT22;491;53.480;10.174;2022-11-25T17:22:39;7.10;99.90
1005;DHT22;491;53.480;10.174;2022-11-25T17:25:04;7.10;99.90
1005;DHT22;491;53.480;10.174;2022-11-25T17:27:31;7.20;99.90
1005;DHT22;491;53.480;10.174;2022-11-25T17:29:59;7.20;99.90
1005;DHT22;491;53.480;10.174;2022-11-25T17:32:25;7.20;99.90
1005;DHT22;491;53.480;10.174;2022-11-25T17:34:51;7.20;99.90
1005;DHT22;491;53.480;10.174;2022-11-25T17:37:22;7.20;99.90
1005;DHT22;491;53.480;10.174;2022-11-25T17:39:51;7.20;99.90
1005;DHT22;491;53.480;10.174;2022-11-25T17:42:22;7.20;99.90
1005;DHT22;491;53.480;10.174;2022-11-25T17:44:48;7.20;99.90
1005;DHT22;491;53.480;10.174;2022-11-25T17:47:15;7.20;99.90
1005;DHT22;491;53.480;10.174;2022-11-25T17:49:41;7.20;99.90
1005;DHT22;491;53.480;10.174;2022-11-25T17:52:07;7.30;99.90
1005;DHT22;491;53.480;10.174;2022-11-25T17:54:33;7.30;99.90
1005;DHT22;491;53.480;10.174;2022-11-25T17:56:59;7.20;99.90
1005;DHT22;491;53.480;10.174;2022-11-25T17:59:32;7.30;99.90
1005;DHT22;491;53.480;10.174;2022-11-25T18:01:59;7.30;99.90
1005;DHT22;491;53.480;10.174;2022-11-25T18:04:28;7.20;99.90
1005;DHT22;491;53.480;10.174;2022-11-25T18:06:54;7.20;99.90
1005;DHT22;491;53.480;10.174;2022-11-25T18:09:20;7.30;99.90
1005;DHT22;491;53.480;10.174;2022-11-25T18:11:49;7.30;99.90
1005;DHT22;491;53.480;10.174;2022-11-25T18:14:28;7.30;99.90